sensor_id;sensor_type;location;lat;lon;timestamp;P1;durP1;ratioP1;P2;durP2;ratioP2
21661;SDS011;10992;48.170;8.596;2022-11-24T00:01:24;5.65;;;1.48;;
21661;SDS011;10992;48.170;8.596;2022-11-24T00:04:03;3.50;;;1.40;;
21661;SDS011;10992;48.170;8.596;2022-11-24T00:06:32;3.67;;;1.40;;
21661;SDS011;10992;48.170;8.596;2022-11-24T00:09:01;7.07;;;1.60;;
21661;SDS011;10992;48.170;8.596;2022-11-24T00:11:30;3.40;;;1.85;;
21661;SDS011;10992;48.170;8.596;2022-11-24T00:13:59;6.95;;;2.05;;
21661;SDS011;10992;48.170;8.596;2022-11-24T00:16:36;5.15;;;1.80;;
21661;SDS011;10992;48.170;8.596;2022-11-24T00:19:04;10.90;;;2.47;;
21661;SDS011;10992;48.170;8.596;2022-11-24T00:21:34;4.05;;;2.00;;
21661;SDS011;10992;48.170;8.596;2022-11-24T00:24:02;4.70;;;1.52;;
21661;SDS011;10992;48.170;8.596;2022-11-24T00:26:30;9.55;;;1.95;;
21661;SDS011;10992;48.170;8.596;2022-11-24T00:29:02;6.57;;;1.70;;
21661;SDS011;10992;48.170;8.596;2022-11-24T00:31:31;4.43;;;1.90;;
21661;SDS011;10992;48.170;8.596;2022-11-24T00:34:01;2.28;;;1.40;;
21661;SDS011;10992;48.170;8.596;2022-11-24T00:36:33;4.05;;;1.45;;
21661;SDS011;10992;48.170;8.596;2022-11-24T00:39:02;4.80;;;1.88;;
21661;SDS011;10992;48.170;8.596;2022-11-24T00:41:30;4.88;;;1.42;;
21661;SDS011;10992;48.170;8.596;2022-11-24T00:43:57;5.38;;;1.70;;
21661;SDS011;10992;48.170;8.596;2022-11-24T00:46:25;4.40;;;1.30;;
21661;SDS011;10992;48.170;8.596;2022-11-24T00:48:53;6.30;;;1.30;;
21661;SDS011;10992;48.170;8.596;2022-11-24T00:51:22;6.40;;;1.45;;
21661;SDS011;10992;48.170;8.596;2022-11-24T00:53:52;5.38;;;1.27;;
21661;SDS011;10992;48.170;8.596;2022-11-24T00:56:20;3.80;;;1.00;;
21661;SDS011;10992;48.170;8.596;2022-11-24T00:58:47;1.83;;;0.90;;
21661;SDS011;10992;48.170;8.596;2022-11-24T01:01:17;6.97;;;1.60;;
21661;SDS011;10992;48.170;8.596;2022-11-24T01:03:46;2.97;;;1.23;;
21661;SDS011;10992;48.170;8.596;2022-11-24T01:06:17;4.00;;;1.23;;
21661;SDS011;10992;48.170;8.596;2022-11-24T01:08:46;6.43;;;1.40;;
21661;SDS011;10992;48.170;8.596;2022-11-24T01:11:33;2.42;;;1.30;;
21661;SDS011;10992;48.170;8.596;2022-11-24T01:14:23;7.18;;;1.50;;
21661;SDS011;10992;48.170;8.596;2022-11-24T01:16:51;5.38;;;2.13;;
21661;SDS011;10992;48.170;8.596;2022-11-24T01:19:17;9.07;;;2.53;;
21661;SDS011;10992;48.170;8.596;2022-11-24T01:21:45;5.20;;;2.50;;
21661;SDS011;10992;48.170;8.596;2022-11-24T01:24:12;6.07;;;2.75;;
21661;SDS011;10992;48.170;8.596;2022-11-24T01:26:39;6.35;;;2.35;;
21661;SDS011;10992;48.170;8.596;2022-11-24T01:29:06;8.55;;;2.58;;
21661;SDS011;10992;48.170;8.596;2022-11-24T01:31:35;7.97;;;2.40;;
21661;SDS011;10992;48.170;8.596;2022-11-24T01:34:02;5.22;;;2.50;;
21661;SDS011;10992;48.170;8.596;2022-11-24T01:36:29;6.15;;;2.72;;
21661;SDS011;10992;48.170;8.596;2022-11-24T01:38:56;5.68;;;2.78;;
21661;SDS011;10992;48.170;8.596;2022-11-24T01:41:24;5.55;;;2.47;;
21661;SDS011;10992;48.170;8.596;2022-11-24T01:43:52;8.35;;;2.40;;
21661;SDS011;10992;48.170;8.596;2022-11-24T01:51:42;7.63;;;2.00;;
21661;SDS011;10992;48.170;8.596;2022-11-24T01:54:15;10.73;;;2.47;;
21661;SDS011;10992;48.170;8.596;2022-11-24T01:56:46;7.68;;;2.17;;
21661;SDS011;10992;48.170;8.596;2022-11-24T01:59:17;11.57;;;2.45;;
21661;SDS011;10992;48.170;8.596;2022-11-24T02:01:47;8.23;;;2.30;;
21661;SDS011;10992;48.170;8.596;2022-11-24T02:04:18;11.60;;;2.13;;
21661;SDS011;10992;48.170;8.596;2022-11-24T02:06:49;5.80;;;1.73;;
21661;SDS011;10992;48.170;8.596;2022-11-24T02:11:44;4.57;;;1.75;;
21661;SDS011;10992;48.170;8.596;2022-11-24T02:14:12;9.75;;;2.03;;
21661;SDS011;10992;48.170;8.596;2022-11-24T02:16:43;8.73;;;2.42;;
21661;SDS011;10992;48.170;8.596;2022-11-24T02:22:14;11.65;;;2.33;;
21661;SDS011;10992;48.170;8.596;2022-11-24T02:24:58;7.82;;;2.25;;
21661;SDS011;10992;48.170;8.596;2022-11-24T02:27:26;6.07;;;1.85;;
21661;SDS011;10992;48.170;8.596;2022-11-24T02:29:53;6.45;;;1.80;;
21661;SDS011;10992;48.170;8.596;2022-11-24T02:32:21;9.57;;;2.30;;
21661;SDS011;10992;48.170;8.596;2022-11-24T02:34:48;10.73;;;2.50;;
21661;SDS011;10992;48.170;8.596;2022-11-24T02:37:15;8.05;;;2.30;;
21661;SDS011;10992;48.170;8.596;2022-11-24T02:39:42;10.70;;;2.47;;
21661;SDS011;10992;48.170;8.596;2022-11-24T02:42:09;11.45;;;2.25;;
21661;SDS011;10992;48.170;8.596;2022-11-24T02:44:40;29.08;;;2.97;;
21661;SDS011;10992;48.170;8.596;2022-11-24T02:47:12;7.53;;;2.50;;
21661;SDS011;10992;48.170;8.596;2022-11-24T02:49:39;9.05;;;2.25;;
21661;SDS011;10992;48.170;8.596;2022-11-24T02:52:06;9.82;;;2.60;;
21661;SDS011;10992;48.170;8.596;2022-11-24T02:54:34;10.50;;;2.55;;
21661;SDS011;10992;48.170;8.596;2022-11-24T02:57:01;13.15;;;3.00;;
21661;SDS011;10992;48.170;8.596;2022-11-24T02:59:29;16.33;;;2.78;;
21661;SDS011;10992;48.170;8.596;2022-11-24T03:01:55;11.55;;;2.22;;
21661;SDS011;10992;48.170;8.596;2022-11-24T03:04:22;14.75;;;2.50;;
21661;SDS011;10992;48.170;8.596;2022-11-24T03:06:49;9.32;;;2.22;;
21661;SDS011;10992;48.170;8.596;2022-11-24T03:09:16;16.58;;;2.90;;
21661;SDS011;10992;48.170;8.596;2022-11-24T03:11:43;9.63;;;2.45;;
21661;SDS011;10992;48.170;8.596;2022-11-24T03:14:10;13.27;;;3.22;;
21661;SDS011;10992;48.170;8.596;2022-11-24T03:16:37;9.73;;;2.28;;
21661;SDS011;10992;48.170;8.596;2022-11-24T03:19:04;11.85;;;2.63;;
21661;SDS011;10992;48.170;8.596;2022-11-24T03:21:31;12.57;;;2.47;;
21661;SDS011;10992;48.170;8.596;2022-11-24T03:23:57;13.25;;;2.47;;
21661;SDS011;10992;48.170;8.596;2022-11-24T03:26:24;12.50;;;2.60;;
21661;SDS011;10992;48.170;8.596;2022-11-24T03:28:52;8.60;;;2.03;;
21661;SDS011;10992;48.170;8.596;2022-11-24T03:31:21;10.00;;;2.65;;
21661;SDS011;10992;48.170;8.596;2022-11-24T03:33:48;10.65;;;2.17;;
21661;SDS011;10992;48.170;8.596;2022-11-24T03:36:15;10.20;;;2.63;;
21661;SDS011;10992;48.170;8.596;2022-11-24T03:38:42;17.08;;;3.00;;
21661;SDS011;10992;48.170;8.596;2022-11-24T03:41:09;8.63;;;2.30;;
21661;SDS011;10992;48.170;8.596;2022-11-24T03:43:36;10.43;;;2.40;;
21661;SDS011;10992;48.170;8.596;2022-11-24T03:46:09;11.48;;;2.28;;
21661;SDS011;10992;48.170;8.596;2022-11-24T03:48:37;10.80;;;2.25;;
21661;SDS011;10992;48.170;8.596;2022-11-24T03:51:04;11.15;;;2.35;;
21661;SDS011;10992;48.170;8.596;2022-11-24T03:53:31;10.55;;;2.88;;
21661;SDS011;10992;48.170;8.596;2022-11-24T03:55:58;9.90;;;2.47;;
21661;SDS011;10992;48.170;8.596;2022-11-24T03:58:26;13.73;;;2.90;;
21661;SDS011;10992;48.170;8.596;2022-11-24T04:00:53;10.18;;;2.20;;
21661;SDS011;10992;48.170;8.596;2022-11-24T04:03:21;10.30;;;2.67;;
21661;SDS011;10992;48.170;8.596;2022-11-24T04:05:49;12.07;;;3.53;;
21661;SDS011;10992;48.170;8.596;2022-11-24T04:08:16;11.13;;;2.35;;
21661;SDS011;10992;48.170;8.596;2022-11-24T04:10:43;11.27;;;2.58;;
21661;SDS011;10992;48.170;8.596;2022-11-24T04:13:11;14.07;;;2.50;;
21661;SDS011;10992;48.170;8.596;2022-11-24T04:15:39;11.15;;;2.90;;
21661;SDS011;10992;48.170;8.596;2022-11-24T04:18:07;10.82;;;2.90;;
21661;SDS011;10992;48.170;8.596;2022-11-24T04:20:36;10.43;;;2.67;;
21661;SDS011;10992;48.170;8.596;2022-11-24T04:23:03;14.57;;;3.30;;
21661;SDS011;10992;48.170;8.596;2022-11-24T04:25:30;12.73;;;2.53;;
21661;SDS011;10992;48.170;8.596;2022-11-24T04:27:58;14.45;;;3.60;;
21661;SDS011;10992;48.170;8.596;2022-11-24T04:30:25;13.35;;;3.33;;
21661;SDS011;10992;48.170;8.596;2022-11-24T04:32:53;18.17;;;4.03;;
21661;SDS011;10992;48.170;8.596;2022-11-24T04:35:20;16.85;;;3.15;;
21661;SDS011;10992;48.170;8.596;2022-11-24T04:37:47;24.08;;;4.15;;
21661;SDS011;10992;48.170;8.596;2022-11-24T04:40:14;16.08;;;2.90;;
21661;SDS011;10992;48.170;8.596;2022-11-24T04:42:41;17.48;;;3.65;;
21661;SDS011;10992;48.170;8.596;2022-11-24T04:45:09;19.75;;;3.47;;
21661;SDS011;10992;48.170;8.596;2022-11-24T04:47:36;25.63;;;4.60;;
21661;SDS011;10992;48.170;8.596;2022-11-24T04:50:04;15.20;;;3.47;;
21661;SDS011;10992;48.170;8.596;2022-11-24T04:52:33;18.13;;;3.72;;
21661;SDS011;10992;48.170;8.596;2022-11-24T04:54:59;18.58;;;4.32;;
21661;SDS011;10992;48.170;8.596;2022-11-24T04:57:26;18.48;;;4.18;;
21661;SDS011;10992;48.170;8.596;2022-11-24T04:59:53;17.35;;;3.47;;
21661;SDS011;10992;48.170;8.596;2022-11-24T05:02:21;18.98;;;2.90;;
21661;SDS011;10992;48.170;8.596;2022-11-24T05:04:49;18.05;;;3.60;;
21661;SDS011;10992;48.170;8.596;2022-11-24T05:07:16;18.63;;;3.17;;
21661;SDS011;10992;48.170;8.596;2022-11-24T05:09:45;16.25;;;3.03;;
21661;SDS011;10992;48.170;8.596;2022-11-24T05:12:31;19.67;;;3.80;;
21661;SDS011;10992;48.170;8.596;2022-11-24T05:14:59;16.38;;;3.17;;
21661;SDS011;10992;48.170;8.596;2022-11-24T05:17:28;16.17;;;3.05;;
21661;SDS011;10992;48.170;8.596;2022-11-24T05:19:56;19.65;;;3.65;;
21661;SDS011;10992;48.170;8.596;2022-11-24T05:22:23;23.30;;;3.38;;
21661;SDS011;10992;48.170;8.596;2022-11-24T05:24:50;16.90;;;2.85;;
21661;SDS011;10992;48.170;8.596;2022-11-24T05:27:17;17.35;;;3.33;;
21661;SDS011;10992;48.170;8.596;2022-11-24T05:29:44;24.95;;;4.75;;
21661;SDS011;10992;48.170;8.596;2022-11-24T05:32:11;17.05;;;3.63;;
21661;SDS011;10992;48.170;8.596;2022-11-24T05:34:38;20.27;;;4.45;;
21661;SDS011;10992;48.170;8.596;2022-11-24T05:37:05;18.73;;;4.00;;
21661;SDS011;10992;48.170;8.596;2022-11-24T05:39:34;17.48;;;3.88;;
21661;SDS011;10992;48.170;8.596;2022-11-24T05:42:02;18.92;;;4.78;;
21661;SDS011;10992;48.170;8.596;2022-11-24T05:44:51;15.35;;;3.40;;
21661;SDS011;10992;48.170;8.596;2022-11-24T05:47:19;19.58;;;3.40;;
21661;SDS011;10992;48.170;8.596;2022-11-24T05:49:46;21.27;;;4.25;;
21661;SDS011;10992;48.170;8.596;2022-11-24T05:52:13;15.05;;;3.78;;
21661;SDS011;10992;48.170;8.596;2022-11-24T05:54:41;19.65;;;4.53;;
21661;SDS011;10992;48.170;8.596;2022-11-24T05:57:07;13.10;;;2.67;;
21661;SDS011;10992;48.170;8.596;2022-11-24T05:59:35;11.40;;;3.65;;
21661;SDS011;10992;48.170;8.596;2022-11-24T06:02:01;17.92;;;3.72;;
21661;SDS011;10992;48.170;8.596;2022-11-24T06:04:29;21.17;;;3.10;;
21661;SDS011;10992;48.170;8.596;2022-11-24T06:06:56;27.15;;;4.97;;
21661;SDS011;10992;48.170;8.596;2022-11-24T06:09:23;26.35;;;6.72;;
21661;SDS011;10992;48.170;8.596;2022-11-24T06:11:50;19.13;;;5.10;;
21661;SDS011;10992;48.170;8.596;2022-11-24T06:14:17;14.02;;;3.80;;
21661;SDS011;10992;48.170;8.596;2022-11-24T06:16:44;13.02;;;3.33;;
21661;SDS011;10992;48.170;8.596;2022-11-24T06:19:11;18.17;;;3.50;;
21661;SDS011;10992;48.170;8.596;2022-11-24T06:21:38;16.65;;;4.15;;
21661;SDS011;10992;48.170;8.596;2022-11-24T06:24:05;19.23;;;4.00;;
21661;SDS011;10992;48.170;8.596;2022-11-24T06:26:32;10.88;;;3.50;;
21661;SDS011;10992;48.170;8.596;2022-11-24T06:28:59;19.98;;;3.47;;
21661;SDS011;10992;48.170;8.596;2022-11-24T06:31:26;15.60;;;3.55;;
21661;SDS011;10992;48.170;8.596;2022-11-24T06:33:53;14.13;;;3.38;;
21661;SDS011;10992;48.170;8.596;2022-11-24T06:36:20;12.95;;;3.63;;
21661;SDS011;10992;48.170;8.596;2022-11-24T06:38:47;15.82;;;3.38;;
21661;SDS011;10992;48.170;8.596;2022-11-24T06:41:14;15.95;;;3.60;;
21661;SDS011;10992;48.170;8.596;2022-11-24T06:43:41;17.25;;;3.15;;
21661;SDS011;10992;48.170;8.596;2022-11-24T06:46:09;14.05;;;4.00;;
21661;SDS011;10992;48.170;8.596;2022-11-24T06:48:36;12.80;;;3.50;;
21661;SDS011;10992;48.170;8.596;2022-11-24T06:51:04;17.08;;;2.80;;
21661;SDS011;10992;48.170;8.596;2022-11-24T06:53:33;15.40;;;3.40;;
21661;SDS011;10992;48.170;8.596;2022-11-24T06:56:07;15.10;;;2.40;;
21661;SDS011;10992;48.170;8.596;2022-11-24T06:58:43;19.73;;;3.08;;
21661;SDS011;10992;48.170;8.596;2022-11-24T07:01:19;11.90;;;2.53;;
21661;SDS011;10992;48.170;8.596;2022-11-24T07:03:50;16.35;;;2.85;;
21661;SDS011;10992;48.170;8.596;2022-11-24T07:06:19;14.27;;;3.28;;
21661;SDS011;10992;48.170;8.596;2022-11-24T07:08:47;13.13;;;2.97;;
21661;SDS011;10992;48.170;8.596;2022-11-24T07:11:16;13.95;;;3.03;;
21661;SDS011;10992;48.170;8.596;2022-11-24T07:13:45;13.48;;;2.60;;
21661;SDS011;10992;48.170;8.596;2022-11-24T07:16:18;11.50;;;2.80;;
21661;SDS011;10992;48.170;8.596;2022-11-24T07:18:47;13.85;;;2.78;;
21661;SDS011;10992;48.170;8.596;2022-11-24T07:21:14;10.48;;;2.70;;
21661;SDS011;10992;48.170;8.596;2022-11-24T07:23:42;18.65;;;3.22;;
21661;SDS011;10992;48.170;8.596;2022-11-24T07:26:09;17.20;;;4.20;;
21661;SDS011;10992;48.170;8.596;2022-11-24T07:28:36;16.50;;;4.07;;
21661;SDS011;10992;48.170;8.596;2022-11-24T07:31:07;17.60;;;3.90;;
21661;SDS011;10992;48.170;8.596;2022-11-24T07:33:35;12.15;;;2.58;;
21661;SDS011;10992;48.170;8.596;2022-11-24T07:36:03;11.90;;;3.22;;
21661;SDS011;10992;48.170;8.596;2022-11-24T07:38:31;15.98;;;6.10;;
21661;SDS011;10992;48.170;8.596;2022-11-24T07:41:06;9.65;;;2.90;;
21661;SDS011;10992;48.170;8.596;2022-11-24T07:43:35;12.40;;;3.00;;
21661;SDS011;10992;48.170;8.596;2022-11-24T07:46:04;10.88;;;3.75;;
21661;SDS011;10992;48.170;8.596;2022-11-24T07:48:32;14.75;;;3.53;;
21661;SDS011;10992;48.170;8.596;2022-11-24T07:51:00;13.85;;;3.10;;
21661;SDS011;10992;48.170;8.596;2022-11-24T07:53:28;15.85;;;3.38;;
21661;SDS011;10992;48.170;8.596;2022-11-24T07:55:55;9.52;;;3.25;;
21661;SDS011;10992;48.170;8.596;2022-11-24T07:58:26;7.18;;;3.00;;
21661;SDS011;10992;48.170;8.596;2022-11-24T08:00:58;4.63;;;1.42;;
21661;SDS011;10992;48.170;8.596;2022-11-24T08:03:26;4.95;;;1.67;;
21661;SDS011;10992;48.170;8.596;2022-11-24T08:05:54;4.97;;;2.30;;
21661;SDS011;10992;48.170;8.596;2022-11-24T08:08:42;5.03;;;1.92;;
21661;SDS011;10992;48.170;8.596;2022-11-24T08:11:13;3.42;;;1.30;;
21661;SDS011;10992;48.170;8.596;2022-11-24T08:13:41;6.05;;;2.15;;
21661;SDS011;10992;48.170;8.596;2022-11-24T08:16:09;6.10;;;2.63;;
21661;SDS011;10992;48.170;8.596;2022-11-24T08:18:38;3.50;;;1.92;;
21661;SDS011;10992;48.170;8.596;2022-11-24T08:21:05;3.75;;;1.63;;
21661;SDS011;10992;48.170;8.596;2022-11-24T08:23:33;5.03;;;1.70;;
21661;SDS011;10992;48.170;8.596;2022-11-24T08:26:06;6.28;;;2.63;;
21661;SDS011;10992;48.170;8.596;2022-11-24T08:28:39;11.77;;;5.88;;
21661;SDS011;10992;48.170;8.596;2022-11-24T08:31:10;7.25;;;4.35;;
21661;SDS011;10992;48.170;8.596;2022-11-24T08:33:39;2.80;;;1.50;;
21661;SDS011;10992;48.170;8.596;2022-11-24T08:36:10;5.95;;;1.30;;
21661;SDS011;10992;48.170;8.596;2022-11-24T08:38:38;4.30;;;1.33;;
21661;SDS011;10992;48.170;8.596;2022-11-24T08:41:07;3.35;;;1.92;;
21661;SDS011;10992;48.170;8.596;2022-11-24T08:43:36;5.07;;;1.80;;
21661;SDS011;10992;48.170;8.596;2022-11-24T08:46:04;2.53;;;1.00;;
21661;SDS011;10992;48.170;8.596;2022-11-24T08:48:33;2.83;;;1.10;;
21661;SDS011;10992;48.170;8.596;2022-11-24T08:51:07;4.90;;;1.20;;
21661;SDS011;10992;48.170;8.596;2022-11-24T08:53:39;5.57;;;2.25;;
21661;SDS011;10992;48.170;8.596;2022-11-24T08:56:07;6.10;;;1.90;;
21661;SDS011;10992;48.170;8.596;2022-11-24T08:58:35;6.60;;;2.60;;
21661;SDS011;10992;48.170;8.596;2022-11-24T09:01:03;6.35;;;2.67;;
21661;SDS011;10992;48.170;8.596;2022-11-24T09:03:35;5.63;;;1.90;;
21661;SDS011;10992;48.170;8.596;2022-11-24T09:06:04;4.88;;;1.23;;
21661;SDS011;10992;48.170;8.596;2022-11-24T09:08:32;6.85;;;1.33;;
21661;SDS011;10992;48.170;8.596;2022-11-24T09:10:59;2.42;;;1.48;;
21661;SDS011;10992;48.170;8.596;2022-11-24T09:13:28;5.10;;;1.50;;
21661;SDS011;10992;48.170;8.596;2022-11-24T09:15:55;6.53;;;2.03;;
21661;SDS011;10992;48.170;8.596;2022-11-24T09:18:22;7.05;;;1.98;;
21661;SDS011;10992;48.170;8.596;2022-11-24T09:21:04;6.90;;;2.20;;
21661;SDS011;10992;48.170;8.596;2022-11-24T09:23:41;6.00;;;2.45;;
21661;SDS011;10992;48.170;8.596;2022-11-24T09:26:10;6.10;;;2.50;;
21661;SDS011;10992;48.170;8.596;2022-11-24T09:28:39;5.68;;;2.60;;
21661;SDS011;10992;48.170;8.596;2022-11-24T09:31:07;5.65;;;1.92;;
21661;SDS011;10992;48.170;8.596;2022-11-24T09:33:36;6.40;;;3.20;;
21661;SDS011;10992;48.170;8.596;2022-11-24T09:36:04;8.85;;;5.40;;
21661;SDS011;10992;48.170;8.596;2022-11-24T09:38:31;8.63;;;4.72;;
21661;SDS011;10992;48.170;8.596;2022-11-24T09:43:58;4.28;;;1.83;;
21661;SDS011;10992;48.170;8.596;2022-11-24T09:49:14;3.40;;;1.02;;
21661;SDS011;10992;48.170;8.596;2022-11-24T09:51:45;2.83;;;0.98;;
21661;SDS011;10992;48.170;8.596;2022-11-24T09:54:18;3.15;;;1.05;;
21661;SDS011;10992;48.170;8.596;2022-11-24T09:56:48;2.72;;;1.00;;
21661;SDS011;10992;48.170;8.596;2022-11-24T09:59:17;4.38;;;1.20;;
21661;SDS011;10992;48.170;8.596;2022-11-24T10:01:46;5.70;;;1.63;;
21661;SDS011;10992;48.170;8.596;2022-11-24T10:09:32;8.32;;;2.60;;
21661;SDS011;10992;48.170;8.596;2022-11-24T10:20:17;6.40;;;2.40;;
21661;SDS011;10992;48.170;8.596;2022-11-24T10:23:00;2.20;;;1.40;;
21661;SDS011;10992;48.170;8.596;2022-11-24T10:25:59;2.33;;;0.90;;
21661;SDS011;10992;48.170;8.596;2022-11-24T10:28:34;5.30;;;1.15;;
21661;SDS011;10992;48.170;8.596;2022-11-24T10:34:00;4.30;;;1.20;;
21661;SDS011;10992;48.170;8.596;2022-11-24T10:39:32;2.80;;;1.02;;
21661;SDS011;10992;48.170;8.596;2022-11-24T10:42:12;5.00;;;1.52;;
21661;SDS011;10992;48.170;8.596;2022-11-24T10:44:43;5.45;;;1.63;;
21661;SDS011;10992;48.170;8.596;2022-11-24T10:47:14;4.55;;;1.60;;
21661;SDS011;10992;48.170;8.596;2022-11-24T10:55:25;5.55;;;1.63;;
21661;SDS011;10992;48.170;8.596;2022-11-24T10:57:52;6.50;;;1.73;;
21661;SDS011;10992;48.170;8.596;2022-11-24T11:02:48;6.78;;;2.20;;
21661;SDS011;10992;48.170;8.596;2022-11-24T11:10:42;6.97;;;1.63;;
21661;SDS011;10992;48.170;8.596;2022-11-24T11:13:23;8.27;;;2.67;;
21661;SDS011;10992;48.170;8.596;2022-11-24T11:15:50;4.60;;;1.90;;
21661;SDS011;10992;48.170;8.596;2022-11-24T11:18:18;6.40;;;1.85;;
21661;SDS011;10992;48.170;8.596;2022-11-24T11:20:50;5.80;;;1.70;;
21661;SDS011;10992;48.170;8.596;2022-11-24T11:23:25;7.97;;;2.05;;
21661;SDS011;10992;48.170;8.596;2022-11-24T11:32:14;5.70;;;1.80;;
21661;SDS011;10992;48.170;8.596;2022-11-24T11:35:10;4.70;;;1.90;;
21661;SDS011;10992;48.170;8.596;2022-11-24T11:37:37;4.05;;;1.40;;
21661;SDS011;10992;48.170;8.596;2022-11-24T11:40:06;4.78;;;1.25;;
21661;SDS011;10992;48.170;8.596;2022-11-24T11:42:50;6.47;;;1.88;;
21661;SDS011;10992;48.170;8.596;2022-11-24T11:45:36;9.18;;;2.13;;
21661;SDS011;10992;48.170;8.596;2022-11-24T11:53:57;4.72;;;1.52;;
21661;SDS011;10992;48.170;8.596;2022-11-24T11:56:31;4.05;;;1.50;;
21661;SDS011;10992;48.170;8.596;2022-11-24T12:09:50;7.07;;;1.83;;
21661;SDS011;10992;48.170;8.596;2022-11-24T12:12:47;2.55;;;1.30;;
21661;SDS011;10992;48.170;8.596;2022-11-24T12:15:27;3.08;;;1.50;;
21661;SDS011;10992;48.170;8.596;2022-11-24T12:21:28;5.43;;;1.50;;
21661;SDS011;10992;48.170;8.596;2022-11-24T12:27:16;3.75;;;1.55;;
21661;SDS011;10992;48.170;8.596;2022-11-24T12:30:07;5.35;;;1.40;;
21661;SDS011;10992;48.170;8.596;2022-11-24T12:35:43;4.88;;;1.33;;
21661;SDS011;10992;48.170;8.596;2022-11-24T12:44:04;6.13;;;1.60;;
21661;SDS011;10992;48.170;8.596;2022-11-24T12:47:06;4.20;;;1.02;;
21661;SDS011;10992;48.170;8.596;2022-11-24T12:52:19;3.80;;;1.27;;
21661;SDS011;10992;48.170;8.596;2022-11-24T12:54:50;4.68;;;1.52;;
21661;SDS011;10992;48.170;8.596;2022-11-24T13:00:03;6.38;;;2.13;;
21661;SDS011;10992;48.170;8.596;2022-11-24T13:05:29;7.00;;;1.92;;
21661;SDS011;10992;48.170;8.596;2022-11-24T13:08:18;6.30;;;1.80;;
21661;SDS011;10992;48.170;8.596;2022-11-24T13:10:45;9.35;;;1.70;;
21661;SDS011;10992;48.170;8.596;2022-11-24T13:13:25;5.28;;;1.38;;
21661;SDS011;10992;48.170;8.596;2022-11-24T13:18:54;2.95;;;0.82;;
21661;SDS011;10992;48.170;8.596;2022-11-24T13:42:31;7.18;;;1.85;;
21661;SDS011;10992;48.170;8.596;2022-11-24T13:53:34;7.13;;;2.20;;
21661;SDS011;10992;48.170;8.596;2022-11-24T13:58:41;5.68;;;2.25;;
21661;SDS011;10992;48.170;8.596;2022-11-24T14:01:29;11.68;;;4.78;;
21661;SDS011;10992;48.170;8.596;2022-11-24T14:04:20;8.43;;;2.28;;
21661;SDS011;10992;48.170;8.596;2022-11-24T14:07:05;9.07;;;1.67;;
21661;SDS011;10992;48.170;8.596;2022-11-24T14:09:41;6.32;;;1.65;;
21661;SDS011;10992;48.170;8.596;2022-11-24T14:12:15;7.88;;;1.90;;
21661;SDS011;10992;48.170;8.596;2022-11-24T14:14:46;5.20;;;1.35;;
21661;SDS011;10992;48.170;8.596;2022-11-24T14:19:44;7.15;;;1.70;;
21661;SDS011;10992;48.170;8.596;2022-11-24T14:22:14;5.78;;;1.30;;
21661;SDS011;10992;48.170;8.596;2022-11-24T14:24:44;3.75;;;1.38;;
21661;SDS011;10992;48.170;8.596;2022-11-24T14:27:17;8.05;;;1.55;;
21661;SDS011;10992;48.170;8.596;2022-11-24T14:29:52;6.03;;;2.08;;
21661;SDS011;10992;48.170;8.596;2022-11-24T14:32:21;9.45;;;1.90;;
21661;SDS011;10992;48.170;8.596;2022-11-24T14:34:48;6.60;;;2.10;;
21661;SDS011;10992;48.170;8.596;2022-11-24T14:37:17;6.25;;;2.03;;
21661;SDS011;10992;48.170;8.596;2022-11-24T14:39:45;4.05;;;1.35;;
21661;SDS011;10992;48.170;8.596;2022-11-24T14:42:19;4.45;;;1.60;;
21661;SDS011;10992;48.170;8.596;2022-11-24T14:44:52;5.78;;;1.98;;
21661;SDS011;10992;48.170;8.596;2022-11-24T14:50:05;10.25;;;2.50;;
21661;SDS011;10992;48.170;8.596;2022-11-24T14:52:35;6.93;;;2.60;;
21661;SDS011;10992;48.170;8.596;2022-11-24T14:55:22;7.75;;;2.47;;
21661;SDS011;10992;48.170;8.596;2022-11-24T14:57:52;4.68;;;2.10;;
21661;SDS011;10992;48.170;8.596;2022-11-24T15:05:21;8.60;;;3.33;;
21661;SDS011;10992;48.170;8.596;2022-11-24T15:08:02;6.20;;;2.53;;
21661;SDS011;10992;48.170;8.596;2022-11-24T15:10:31;9.65;;;3.30;;
21661;SDS011;10992;48.170;8.596;2022-11-24T15:12:59;9.68;;;3.97;;
21661;SDS011;10992;48.170;8.596;2022-11-24T15:15:35;12.55;;;5.13;;
21661;SDS011;10992;48.170;8.596;2022-11-24T15:18:03;9.80;;;4.72;;
21661;SDS011;10992;48.170;8.596;2022-11-24T15:20:32;9.90;;;5.43;;
21661;SDS011;10992;48.170;8.596;2022-11-24T15:23:12;8.10;;;4.35;;
21661;SDS011;10992;48.170;8.596;2022-11-24T15:25:54;12.00;;;5.22;;
21661;SDS011;10992;48.170;8.596;2022-11-24T15:28:22;14.52;;;6.95;;
21661;SDS011;10992;48.170;8.596;2022-11-24T15:30:55;14.48;;;6.32;;
21661;SDS011;10992;48.170;8.596;2022-11-24T15:33:26;12.50;;;5.07;;
21661;SDS011;10992;48.170;8.596;2022-11-24T15:35:53;11.27;;;4.28;;
21661;SDS011;10992;48.170;8.596;2022-11-24T15:38:21;10.20;;;4.10;;
21661;SDS011;10992;48.170;8.596;2022-11-24T15:40:49;12.77;;;5.07;;
21661;SDS011;10992;48.170;8.596;2022-11-24T15:43:31;6.80;;;3.20;;
21661;SDS011;10992;48.170;8.596;2022-11-24T15:46:01;9.60;;;4.50;;
21661;SDS011;10992;48.170;8.596;2022-11-24T15:48:29;11.95;;;4.32;;
21661;SDS011;10992;48.170;8.596;2022-11-24T15:50:57;7.85;;;2.90;;
21661;SDS011;10992;48.170;8.596;2022-11-24T15:58:54;11.45;;;4.20;;
21661;SDS011;10992;48.170;8.596;2022-11-24T16:01:21;9.85;;;3.65;;
21661;SDS011;10992;48.170;8.596;2022-11-24T16:03:52;12.70;;;4.78;;
21661;SDS011;10992;48.170;8.596;2022-11-24T16:06:19;12.23;;;3.67;;
21661;SDS011;10992;48.170;8.596;2022-11-24T16:08:51;9.45;;;3.63;;
21661;SDS011;10992;48.170;8.596;2022-11-24T16:11:19;9.43;;;3.42;;
21661;SDS011;10992;48.170;8.596;2022-11-24T16:13:47;9.98;;;3.30;;
21661;SDS011;10992;48.170;8.596;2022-11-24T16:16:19;7.60;;;3.85;;
21661;SDS011;10992;48.170;8.596;2022-11-24T16:18:47;6.90;;;3.08;;
21661;SDS011;10992;48.170;8.596;2022-11-24T16:21:14;13.35;;;4.03;;
21661;SDS011;10992;48.170;8.596;2022-11-24T16:23:41;6.30;;;3.60;;
21661;SDS011;10992;48.170;8.596;2022-11-24T16:26:08;9.50;;;4.20;;
21661;SDS011;10992;48.170;8.596;2022-11-24T16:28:35;10.35;;;6.25;;
21661;SDS011;10992;48.170;8.596;2022-11-24T16:31:02;17.42;;;8.93;;
21661;SDS011;10992;48.170;8.596;2022-11-24T16:33:29;14.90;;;8.43;;
21661;SDS011;10992;48.170;8.596;2022-11-24T16:35:56;15.30;;;7.25;;
21661;SDS011;10992;48.170;8.596;2022-11-24T16:38:24;25.05;;;10.13;;
21661;SDS011;10992;48.170;8.596;2022-11-24T16:40:51;22.23;;;8.88;;
21661;SDS011;10992;48.170;8.596;2022-11-24T16:43:19;17.98;;;8.15;;
21661;SDS011;10992;48.170;8.596;2022-11-24T16:45:46;11.77;;;4.95;;
21661;SDS011;10992;48.170;8.596;2022-11-24T16:48:39;18.35;;;6.82;;
21661;SDS011;10992;48.170;8.596;2022-11-24T16:51:06;14.90;;;6.30;;
21661;SDS011;10992;48.170;8.596;2022-11-24T16:53:35;13.70;;;6.15;;
21661;SDS011;10992;48.170;8.596;2022-11-24T16:56:03;20.20;;;8.52;;
21661;SDS011;10992;48.170;8.596;2022-11-24T16:58:30;48.17;;;20.25;;
21661;SDS011;10992;48.170;8.596;2022-11-24T17:01:06;49.90;;;25.17;;
21661;SDS011;10992;48.170;8.596;2022-11-24T17:03:38;30.98;;;17.88;;
21661;SDS011;10992;48.170;8.596;2022-11-24T17:06:06;19.38;;;9.15;;
21661;SDS011;10992;48.170;8.596;2022-11-24T17:08:36;18.80;;;9.90;;
21661;SDS011;10992;48.170;8.596;2022-11-24T17:11:14;12.50;;;7.18;;
21661;SDS011;10992;48.170;8.596;2022-11-24T17:13:43;7.38;;;4.35;;
21661;SDS011;10992;48.170;8.596;2022-11-24T17:16:12;15.13;;;3.70;;
21661;SDS011;10992;48.170;8.596;2022-11-24T17:18:40;10.93;;;4.68;;
21661;SDS011;10992;48.170;8.596;2022-11-24T17:21:10;11.50;;;5.10;;
21661;SDS011;10992;48.170;8.596;2022-11-24T17:23:44;18.00;;;10.32;;
21661;SDS011;10992;48.170;8.596;2022-11-24T17:26:12;22.65;;;10.70;;